sensor_id;sensor_type;location;lat;lon;timestamp;temperature;humidity
15765;DHT22;7983;50.744;7.086;2023-04-15T00:00:16;8.80;99.90
15765;DHT22;7983;50.744;7.086;2023-04-15T00:02:42;8.70;99.90
15765;DHT22;7983;50.744;7.086;2023-04-15T00:05:08;8.60;99.90
15765;DHT22;7983;50.744;7.086;2023-04-15T00:07:34;8.60;99.90
15765;DHT22;7983;50.744;7.086;2023-04-15T00:10:01;8.60;99.90
15765;DHT22;7983;50.744;7.086;2023-04-15T00:12:27;8.60;99.90
15765;DHT22;7983;50.744;7.086;2023-04-15T00:14:53;8.50;99.90
15765;DHT22;7983;50.744;7.086;2023-04-15T00:17:19;8.50;99.90
15765;DHT22;7983;50.744;7.086;2023-04-15T00:19:44;8.40;99.90
15765;DHT22;7983;50.744;7.086;2023-04-15T00:22:10;8.40;99.90
15765;DHT22;7983;50.744;7.086;2023-04-15T00:24:41;8.40;99.90
15765;DHT22;7983;50.744;7.086;2023-04-15T00:27:09;8.40;99.90
15765;DHT22;7983;50.744;7.086;2023-04-15T00:29:35;8.40;99.90
15765;DHT22;7983;50.744;7.086;2023-04-15T00:32:01;8.40;99.90
15765;DHT22;7983;50.744;7.086;2023-04-15T00:34:27;8.30;99.90
15765;DHT22;7983;50.744;7.086;2023-04-15T00:36:53;8.40;99.90
15765;DHT22;7983;50.744;7.086;2023-04-15T00:39:19;8.40;99.90
15765;DHT22;7983;50.744;7.086;2023-04-15T00:41:45;8.30;99.90
15765;DHT22;7983;50.744;7.086;2023-04-15T00:44:11;8.40;99.90
15765;DHT22;7983;50.744;7.086;2023-04-15T00:46:37;8.30;99.90
15765;DHT22;7983;50.744;7.086;2023-04-15T00:49:06;8.30;99.90
15765;DHT22;7983;50.744;7.086;2023-04-15T00:51:34;8.30;99.90
15765;DHT22;7983;50.744;7.086;2023-04-15T00:54:02;8.30;99.90
15765;DHT22;7983;50.744;7.086;2023-04-15T00:56:28;8.30;99.90
15765;DHT22;7983;50.744;7.086;2023-04-15T00:58:54;8.30;99.90
15765;DHT22;7983;50.744;7.086;2023-04-15T01:01:24;8.20;99.90
15765;DHT22;7983;50.744;7.086;2023-04-15T01:03:51;8.30;99.90
15765;DHT22;7983;50.744;7.086;2023-04-15T01:06:19;8.20;99.90
15765;DHT22;7983;50.744;7.086;2023-04-15T01:08:47;8.20;99.90
15765;DHT22;7983;50.744;7.086;2023-04-15T01:11:14;8.20;99.90
15765;DHT22;7983;50.744;7.086;2023-04-15T01:13:40;8.20;99.90
15765;DHT22;7983;50.744;7.086;2023-04-15T01:16:07;8.30;99.90
15765;DHT22;7983;50.744;7.086;2023-04-15T01:18:33;8.20;99.90
15765;DHT22;7983;50.744;7.086;2023-04-15T01:21:00;8.10;99.90
15765;DHT22;7983;50.744;7.086;2023-04-15T01:23:29;8.20;99.90
15765;DHT22;7983;50.744;7.086;2023-04-15T01:25:55;8.10;99.90
15765;DHT22;7983;50.744;7.086;2023-04-15T01:28:21;8.10;99.90
15765;DHT22;7983;50.744;7.086;2023-04-15T01:30:46;8.00;99.90
15765;DHT22;7983;50.744;7.086;2023-04-15T01:33:14;8.10;99.90
15765;DHT22;7983;50.744;7.086;2023-04-15T01:35:40;8.00;99.90
15765;DHT22;7983;50.744;7.086;2023-04-15T01:38:09;7.90;99.90
15765;DHT22;7983;50.744;7.086;2023-04-15T01:40:36;7.90;99.90
15765;DHT22;7983;50.744;7.086;2023-04-15T01:43:01;7.80;99.90
15765;DHT22;7983;50.744;7.086;2023-04-15T01:45:30;7.80;99.90
15765;DHT22;7983;50.744;7.086;2023-04-15T01:47:56;7.70;99.90
15765;DHT22;7983;50.744;7.086;2023-04-15T01:50:24;7.70;99.90
15765;DHT22;7983;50.744;7.086;2023-04-15T01:52:51;7.70;99.90
15765;DHT22;7983;50.744;7.086;2023-04-15T01:55:19;7.60;99.90
15765;DHT22;7983;50.744;7.086;2023-04-15T01:57:45;7.60;99.90
15765;DHT22;7983;50.744;7.086;2023-04-15T02:00:15;7.60;99.90
15765;DHT22;7983;50.744;7.086;2023-04-15T02:02:41;7.50;99.90
15765;DHT22;7983;50.744;7.086;2023-04-15T02:05:10;7.40;99.90
15765;DHT22;7983;50.744;7.086;2023-04-15T02:07:35;7.40;99.90
15765;DHT22;7983;50.744;7.086;2023-04-15T02:10:03;7.40;99.90
15765;DHT22;7983;50.744;7.086;2023-04-15T02:12:32;7.30;99.90
15765;DHT22;7983;50.744;7.086;2023-04-15T02:15:00;7.30;99.90
15765;DHT22;7983;50.744;7.086;2023-04-15T02:17:25;7.30;99.90
15765;DHT22;7983;50.744;7.086;2023-04-15T02:19:55;7.30;99.90
15765;DHT22;7983;50.744;7.086;2023-04-15T02:22:21;7.30;99.90
15765;DHT22;7983;50.744;7.086;2023-04-15T02:24:47;7.30;99.90
15765;DHT22;7983;50.744;7.086;2023-04-15T02:27:16;7.20;99.90
15765;DHT22;7983;50.744;7.086;2023-04-15T02:29:44;7.30;99.90
15765;DHT22;7983;50.744;7.086;2023-04-15T02:32:13;7.20;99.90
15765;DHT22;7983;50.744;7.086;2023-04-15T02:34:42;7.20;99.90
15765;DHT22;7983;50.744;7.086;2023-04-15T02:37:13;7.20;99.90
15765;DHT22;7983;50.744;7.086;2023-04-15T02:39:39;7.20;99.90
15765;DHT22;7983;50.744;7.086;2023-04-15T02:42:04;7.20;99.90
15765;DHT22;7983;50.744;7.086;2023-04-15T02:44:32;7.20;99.90
15765;DHT22;7983;50.744;7.086;2023-04-15T02:47:00;7.10;99.90
15765;DHT22;7983;50.744;7.086;2023-04-15T02:49:26;7.10;99.90
15765;DHT22;7983;50.744;7.086;2023-04-15T02:51:54;7.10;99.90
15765;DHT22;7983;50.744;7.086;2023-04-15T02:54:22;7.10;99.90
15765;DHT22;7983;50.744;7.086;2023-04-15T02:56:53;7.10;99.90
15765;DHT22;7983;50.744;7.086;2023-04-15T02:59:21;7.00;99.90
15765;DHT22;7983;50.744;7.086;2023-04-15T03:01:51;7.00;99.90
15765;DHT22;7983;50.744;7.086;2023-04-15T03:04:17;7.00;99.90
15765;DHT22;7983;50.744;7.086;2023-04-15T03:06:45;6.90;99.90
15765;DHT22;7983;50.744;7.086;2023-04-15T03:09:13;6.90;99.90
15765;DHT22;7983;50.744;7.086;2023-04-15T03:11:38;6.90;99.90
15765;DHT22;7983;50.744;7.086;2023-04-15T03:14:08;6.90;99.90
15765;DHT22;7983;50.744;7.086;2023-04-15T03:16:36;6.80;99.90
15765;DHT22;7983;50.744;7.086;2023-04-15T03:19:01;6.80;99.90
15765;DHT22;7983;50.744;7.086;2023-04-15T03:21:27;6.80;99.90
15765;DHT22;7983;50.744;7.086;2023-04-15T03:23:55;6.70;99.90
15765;DHT22;7983;50.744;7.086;2023-04-15T03:26:29;6.80;99.90
15765;DHT22;7983;50.744;7.086;2023-04-15T03:28:57;6.70;99.90
15765;DHT22;7983;50.744;7.086;2023-04-15T03:31:28;6.70;99.90
15765;DHT22;7983;50.744;7.086;2023-04-15T03:33:58;6.60;99.90
15765;DHT22;7983;50.744;7.086;2023-04-15T03:36:28;6.60;99.90
15765;DHT22;7983;50.744;7.086;2023-04-15T03:38:56;6.60;99.90
15765;DHT22;7983;50.744;7.086;2023-04-15T03:41:22;6.50;99.90
15765;DHT22;7983;50.744;7.086;2023-04-15T03:43:50;6.50;99.90
15765;DHT22;7983;50.744;7.086;2023-04-15T03:46:20;6.60;99.90
15765;DHT22;7983;50.744;7.086;2023-04-15T03:48:53;6.50;99.90
15765;DHT22;7983;50.744;7.086;2023-04-15T03:51:21;6.50;99.90
15765;DHT22;7983;50.744;7.086;2023-04-15T03:53:47;6.50;99.90
15765;DHT22;7983;50.744;7.086;2023-04-15T03:56:17;6.50;99.90
15765;DHT22;7983;50.744;7.086;2023-04-15T03:58:45;6.50;99.90
15765;DHT22;7983;50.744;7.086;2023-04-15T04:01:11;6.50;99.90
15765;DHT22;7983;50.744;7.086;2023-04-15T04:03:41;6.50;99.90
15765;DHT22;7983;50.744;7.086;2023-04-15T04:06:07;6.50;99.90
15765;DHT22;7983;50.744;7.086;2023-04-15T04:08:33;6.50;99.90
15765;DHT22;7983;50.744;7.086;2023-04-15T04:10:58;6.50;99.90
15765;DHT22;7983;50.744;7.086;2023-04-15T04:13:24;6.50;99.90
15765;DHT22;7983;50.744;7.086;2023-04-15T04:15:50;6.50;99.90
15765;DHT22;7983;50.744;7.086;2023-04-15T04:18:15;6.60;99.90
15765;DHT22;7983;50.744;7.086;2023-04-15T04:20:41;6.60;99.90
15765;DHT22;7983;50.744;7.086;2023-04-15T04:23:07;6.60;99.90
15765;DHT22;7983;50.744;7.086;2023-04-15T04:25:35;6.60;99.90
15765;DHT22;7983;50.744;7.086;2023-04-15T04:28:03;6.60;99.90
15765;DHT22;7983;50.744;7.086;2023-04-15T04:30:31;6.60;99.90
15765;DHT22;7983;50.744;7.086;2023-04-15T04:32:57;6.60;99.90
15765;DHT22;7983;50.744;7.086;2023-04-15T04:35:27;6.60;99.90
15765;DHT22;7983;50.744;7.086;2023-04-15T04:37:52;6.50;99.90
15765;DHT22;7983;50.744;7.086;2023-04-15T04:40:23;6.50;99.90
15765;DHT22;7983;50.744;7.086;2023-04-15T04:42:48;6.50;99.90
15765;DHT22;7983;50.744;7.086;2023-04-15T04:45:14;6.50;99.90
15765;DHT22;7983;50.744;7.086;2023-04-15T04:47:40;6.40;99.90
15765;DHT22;7983;50.744;7.086;2023-04-15T04:50:06;6.40;99.90
15765;DHT22;7983;50.744;7.086;2023-04-15T04:52:32;6.40;99.90
15765;DHT22;7983;50.744;7.086;2023-04-15T04:54:59;6.30;99.90
15765;DHT22;7983;50.744;7.086;2023-04-15T04:57:25;6.30;99.90
15765;DHT22;7983;50.744;7.086;2023-04-15T04:59:51;6.30;99.90
15765;DHT22;7983;50.744;7.086;2023-04-15T05:02:21;6.30;99.90
15765;DHT22;7983;50.744;7.086;2023-04-15T05:04:46;6.30;99.90
15765;DHT22;7983;50.744;7.086;2023-04-15T05:07:15;6.30;99.90
15765;DHT22;7983;50.744;7.086;2023-04-15T05:09:43;6.20;99.90
15765;DHT22;7983;50.744;7.086;2023-04-15T05:12:11;6.20;99.90
15765;DHT22;7983;50.744;7.086;2023-04-15T05:14:40;6.20;99.90
15765;DHT22;7983;50.744;7.086;2023-04-15T05:17:06;6.10;99.90
15765;DHT22;7983;50.744;7.086;2023-04-15T05:19:38;6.10;99.90
15765;DHT22;7983;50.744;7.086;2023-04-15T05:22:06;6.10;99.90
15765;DHT22;7983;50.744;7.086;2023-04-15T05:24:34;6.10;99.90
15765;DHT22;7983;50.744;7.086;2023-04-15T05:27:02;6.10;99.90
15765;DHT22;7983;50.744;7.086;2023-04-15T05:29:30;6.10;99.90
15765;DHT22;7983;50.744;7.086;2023-04-15T05:31:55;6.10;99.90
15765;DHT22;7983;50.744;7.086;2023-04-15T05:34:21;6.10;99.90
15765;DHT22;7983;50.744;7.086;2023-04-15T05:36:47;6.10;99.90
15765;DHT22;7983;50.744;7.086;2023-04-15T05:39:13;6.10;99.90
15765;DHT22;7983;50.744;7.086;2023-04-15T05:41:38;6.20;99.90
15765;DHT22;7983;50.744;7.086;2023-04-15T05:44:06;6.20;99.90
15765;DHT22;7983;50.744;7.086;2023-04-15T05:46:34;6.30;99.90
15765;DHT22;7983;50.744;7.086;2023-04-15T05:49:00;6.40;99.90
15765;DHT22;7983;50.744;7.086;2023-04-15T05:51:30;6.40;99.90
15765;DHT22;7983;50.744;7.086;2023-04-15T05:53:58;6.50;99.90
15765;DHT22;7983;50.744;7.086;2023-04-15T05:56:26;6.60;99.90
15765;DHT22;7983;50.744;7.086;2023-04-15T05:58:52;6.70;99.90
15765;DHT22;7983;50.744;7.086;2023-04-15T06:01:20;6.70;99.90
15765;DHT22;7983;50.744;7.086;2023-04-15T06:03:46;6.80;99.90
15765;DHT22;7983;50.744;7.086;2023-04-15T06:06:13;6.90;99.90
15765;DHT22;7983;50.744;7.086;2023-04-15T06:08:42;6.90;99.90
15765;DHT22;7983;50.744;7.086;2023-04-15T06:11:10;7.00;99.90
15765;DHT22;7983;50.744;7.086;2023-04-15T06:13:36;7.00;99.90
15765;DHT22;7983;50.744;7.086;2023-04-15T06:16:01;7.10;99.90
15765;DHT22;7983;50.744;7.086;2023-04-15T06:18:28;7.10;99.90
15765;DHT22;7983;50.744;7.086;2023-04-15T06:20:54;7.20;99.90
15765;DHT22;7983;50.744;7.086;2023-04-15T06:23:19;7.30;99.90
15765;DHT22;7983;50.744;7.086;2023-04-15T06:25:49;7.40;99.90
15765;DHT22;7983;50.744;7.086;2023-04-15T06:28:15;7.50;99.90
15765;DHT22;7983;50.744;7.086;2023-04-15T06:30:43;7.60;99.90
15765;DHT22;7983;50.744;7.086;2023-04-15T06:33:08;7.80;99.90
15765;DHT22;7983;50.744;7.086;2023-04-15T06:35:35;7.80;99.90
15765;DHT22;7983;50.744;7.086;2023-04-15T06:38:00;7.90;99.90
15765;DHT22;7983;50.744;7.086;2023-04-15T06:40:26;8.00;99.90
15765;DHT22;7983;50.744;7.086;2023-04-15T06:42:52;8.10;99.90
15765;DHT22;7983;50.744;7.086;2023-04-15T06:45:20;8.10;99.90
15765;DHT22;7983;50.744;7.086;2023-04-15T06:47:45;8.30;99.90
15765;DHT22;7983;50.744;7.086;2023-04-15T06:50:16;8.30;99.90
15765;DHT22;7983;50.744;7.086;2023-04-15T06:52:44;8.40;99.90
15765;DHT22;7983;50.744;7.086;2023-04-15T06:55:10;8.50;99.90
15765;DHT22;7983;50.744;7.086;2023-04-15T06:57:41;8.50;99.90
15765;DHT22;7983;50.744;7.086;2023-04-15T07:00:10;8.50;99.90
15765;DHT22;7983;50.744;7.086;2023-04-15T07:02:36;8.60;99.90
15765;DHT22;7983;50.744;7.086;2023-04-15T07:05:02;8.70;99.90
15765;DHT22;7983;50.744;7.086;2023-04-15T07:07:31;8.80;99.90
15765;DHT22;7983;50.744;7.086;2023-04-15T07:09:57;8.90;99.90
15765;DHT22;7983;50.744;7.086;2023-04-15T07:12:22;9.00;99.90
15765;DHT22;7983;50.744;7.086;2023-04-15T07:14:53;9.10;99.90
15765;DHT22;7983;50.744;7.086;2023-04-15T07:17:19;9.20;99.90
15765;DHT22;7983;50.744;7.086;2023-04-15T07:19:45;9.30;99.90
15765;DHT22;7983;50.744;7.086;2023-04-15T07:22:10;9.40;99.90
15765;DHT22;7983;50.744;7.086;2023-04-15T07:24:40;9.60;99.90
15765;DHT22;7983;50.744;7.086;2023-04-15T07:27:06;9.70;99.90
15765;DHT22;7983;50.744;7.086;2023-04-15T07:29:32;9.90;99.90
15765;DHT22;7983;50.744;7.086;2023-04-15T07:31:58;10.00;99.90
15765;DHT22;7983;50.744;7.086;2023-04-15T07:34:26;10.10;99.90
15765;DHT22;7983;50.744;7.086;2023-04-15T07:36:51;10.30;99.90
15765;DHT22;7983;50.744;7.086;2023-04-15T07:39:17;10.40;99.90
15765;DHT22;7983;50.744;7.086;2023-04-15T07:41:43;10.60;99.90
15765;DHT22;7983;50.744;7.086;2023-04-15T07:44:09;10.70;99.90
15765;DHT22;7983;50.744;7.086;2023-04-15T07:46:34;10.80;99.90
15765;DHT22;7983;50.744;7.086;2023-04-15T07:49:00;10.90;99.90
15765;DHT22;7983;50.744;7.086;2023-04-15T07:51:26;11.00;99.90
15765;DHT22;7983;50.744;7.086;2023-04-15T07:53:51;11.10;99.90
15765;DHT22;7983;50.744;7.086;2023-04-15T07:56:19;11.20;99.90
15765;DHT22;7983;50.744;7.086;2023-04-15T07:58:45;11.30;99.90
15765;DHT22;7983;50.744;7.086;2023-04-15T08:01:10;11.40;99.90
15765;DHT22;7983;50.744;7.086;2023-04-15T08:03:41;11.60;99.90
15765;DHT22;7983;50.744;7.086;2023-04-15T08:06:07;11.60;99.90
15765;DHT22;7983;50.744;7.086;2023-04-15T08:08:32;11.70;99.90
15765;DHT22;7983;50.744;7.086;2023-04-15T08:10:58;11.80;99.90
15765;DHT22;7983;50.744;7.086;2023-04-15T08:13:27;11.90;99.90
15765;DHT22;7983;50.744;7.086;2023-04-15T08:16:30;12.00;99.90
15765;DHT22;7983;50.744;7.086;2023-04-15T08:18:56;12.00;99.90
15765;DHT22;7983;50.744;7.086;2023-04-15T08:21:22;12.10;99.90
15765;DHT22;7983;50.744;7.086;2023-04-15T08:23:52;12.10;99.90
15765;DHT22;7983;50.744;7.086;2023-04-15T08:26:21;12.20;99.90
15765;DHT22;7983;50.744;7.086;2023-04-15T08:28:46;12.30;99.90
15765;DHT22;7983;50.744;7.086;2023-04-15T08:31:16;12.40;99.90
15765;DHT22;7983;50.744;7.086;2023-04-15T08:33:45;12.50;99.90
15765;DHT22;7983;50.744;7.086;2023-04-15T08:36:11;12.50;99.90
15765;DHT22;7983;50.744;7.086;2023-04-15T08:38:39;12.70;99.90
15765;DHT22;7983;50.744;7.086;2023-04-15T08:41:25;12.80;99.90
15765;DHT22;7983;50.744;7.086;2023-04-15T08:43:57;12.90;99.90
15765;DHT22;7983;50.744;7.086;2023-04-15T08:46:25;13.00;99.90
15765;DHT22;7983;50.744;7.086;2023-04-15T08:48:51;13.00;99.90
15765;DHT22;7983;50.744;7.086;2023-04-15T08:51:27;13.10;99.90
15765;DHT22;7983;50.744;7.086;2023-04-15T08:53:55;13.20;99.90
15765;DHT22;7983;50.744;7.086;2023-04-15T08:56:24;13.30;99.90
15765;DHT22;7983;50.744;7.086;2023-04-15T08:58:56;13.40;99.90
15765;DHT22;7983;50.744;7.086;2023-04-15T09:01:22;13.40;99.90
15765;DHT22;7983;50.744;7.086;2023-04-15T09:03:48;13.50;99.90
15765;DHT22;7983;50.744;7.086;2023-04-15T09:06:16;13.60;99.90
15765;DHT22;7983;50.744;7.086;2023-04-15T09:08:44;13.60;99.90
15765;DHT22;7983;50.744;7.086;2023-04-15T09:11:12;13.70;99.90
15765;DHT22;7983;50.744;7.086;2023-04-15T09:13:38;13.80;99.90
15765;DHT22;7983;50.744;7.086;2023-04-15T09:16:05;13.90;99.90
15765;DHT22;7983;50.744;7.086;2023-04-15T09:18:33;14.00;99.90
15765;DHT22;7983;50.744;7.086;2023-04-15T09:21:08;14.10;99.90
15765;DHT22;7983;50.744;7.086;2023-04-15T09:23:39;14.20;99.90
15765;DHT22;7983;50.744;7.086;2023-04-15T09:26:07;14.30;99.90
15765;DHT22;7983;50.744;7.086;2023-04-15T09:28:33;14.40;99.90
15765;DHT22;7983;50.744;7.086;2023-04-15T09:31:05;14.50;99.90
15765;DHT22;7983;50.744;7.086;2023-04-15T09:33:31;14.70;99.90
15765;DHT22;7983;50.744;7.086;2023-04-15T09:36:02;14.70;99.90
15765;DHT22;7983;50.744;7.086;2023-04-15T09:38:31;14.80;99.90
15765;DHT22;7983;50.744;7.086;2023-04-15T09:41:05;14.80;99.90
15765;DHT22;7983;50.744;7.086;2023-04-15T09:43:43;14.90;99.90
15765;DHT22;7983;50.744;7.086;2023-04-15T09:46:11;14.90;99.90
15765;DHT22;7983;50.744;7.086;2023-04-15T09:48:37;14.90;99.90
15765;DHT22;7983;50.744;7.086;2023-04-15T09:51:03;14.90;99.90
15765;DHT22;7983;50.744;7.086;2023-04-15T09:53:29;14.90;99.90
15765;DHT22;7983;50.744;7.086;2023-04-15T09:55:58;14.90;99.90
15765;DHT22;7983;50.744;7.086;2023-04-15T09:58:28;15.00;99.90
15765;DHT22;7983;50.744;7.086;2023-04-15T10:00:58;15.00;99.90
15765;DHT22;7983;50.744;7.086;2023-04-15T10:03:27;15.00;99.90
15765;DHT22;7983;50.744;7.086;2023-04-15T10:05:54;15.10;99.90
15765;DHT22;7983;50.744;7.086;2023-04-15T10:08:23;15.30;99.90
15765;DHT22;7983;50.744;7.086;2023-04-15T10:10:49;15.60;99.90
15765;DHT22;7983;50.744;7.086;2023-04-15T10:13:21;15.90;99.90
15765;DHT22;7983;50.744;7.086;2023-04-15T10:15:59;16.30;99.90
15765;DHT22;7983;50.744;7.086;2023-04-15T10:18:28;16.60;99.90
15765;DHT22;7983;50.744;7.086;2023-04-15T10:21:00;16.80;99.90
15765;DHT22;7983;50.744;7.086;2023-04-15T10:23:28;17.00;99.90
15765;DHT22;7983;50.744;7.086;2023-04-15T10:25:54;17.20;99.90
15765;DHT22;7983;50.744;7.086;2023-04-15T10:28:23;17.30;99.90
15765;DHT22;7983;50.744;7.086;2023-04-15T10:30:51;17.40;99.90
15765;DHT22;7983;50.744;7.086;2023-04-15T10:33:20;17.50;99.90
15765;DHT22;7983;50.744;7.086;2023-04-15T10:35:48;17.60;99.90
15765;DHT22;7983;50.744;7.086;2023-04-15T10:38:37;17.70;99.90
15765;DHT22;7983;50.744;7.086;2023-04-15T10:41:21;17.80;99.90
15765;DHT22;7983;50.744;7.086;2023-04-15T10:44:04;17.80;99.90
15765;DHT22;7983;50.744;7.086;2023-04-15T10:46:40;17.80;99.90
15765;DHT22;7983;50.744;7.086;2023-04-15T10:49:11;17.70;99.90
15765;DHT22;7983;50.744;7.086;2023-04-15T10:51:40;17.60;99.90
15765;DHT22;7983;50.744;7.086;2023-04-15T11:05:04;17.00;99.90
15765;DHT22;7983;50.744;7.086;2023-04-15T11:12:53;17.10;99.90
15765;DHT22;7983;50.744;7.086;2023-04-15T11:15:47;17.10;99.90
15765;DHT22;7983;50.744;7.086;2023-04-15T11:18:15;17.10;99.90
15765;DHT22;7983;50.744;7.086;2023-04-15T11:20:48;17.10;99.90
15765;DHT22;7983;50.744;7.086;2023-04-15T11:23:26;17.10;99.90
15765;DHT22;7983;50.744;7.086;2023-04-15T11:25:54;17.00;99.90
15765;DHT22;7983;50.744;7.086;2023-04-15T11:28:19;16.80;99.90
15765;DHT22;7983;50.744;7.086;2023-04-15T11:30:45;16.70;99.90
15765;DHT22;7983;50.744;7.086;2023-04-15T11:33:11;16.70;99.90
15765;DHT22;7983;50.744;7.086;2023-04-15T11:35:40;16.70;99.90
15765;DHT22;7983;50.744;7.086;2023-04-15T11:38:11;16.60;99.90
15765;DHT22;7983;50.744;7.086;2023-04-15T11:40:43;16.60;99.90
15765;DHT22;7983;50.744;7.086;2023-04-15T11:43:13;16.60;99.90
15765;DHT22;7983;50.744;7.086;2023-04-15T11:45:49;16.50;99.90
15765;DHT22;7983;50.744;7.086;2023-04-15T11:48:19;16.30;99.90
15765;DHT22;7983;50.744;7.086;2023-04-15T11:50:51;16.20;99.90
15765;DHT22;7983;50.744;7.086;2023-04-15T11:53:17;16.10;99.90
15765;DHT22;7983;50.744;7.086;2023-04-15T11:58:21;15.90;99.90
15765;DHT22;7983;50.744;7.086;2023-04-15T12:00:58;15.90;99.90
15765;DHT22;7983;50.744;7.086;2023-04-15T12:03:26;15.90;99.90
15765;DHT22;7983;50.744;7.086;2023-04-15T12:11:29;16.10;99.90
15765;DHT22;7983;50.744;7.086;2023-04-15T12:16:44;16.20;99.90
15765;DHT22;7983;50.744;7.086;2023-04-15T12:19:14;16.30;99.90
15765;DHT22;7983;50.744;7.086;2023-04-15T12:21:43;16.40;99.90
15765;DHT22;7983;50.744;7.086;2023-04-15T12:24:10;16.40;99.90
15765;DHT22;7983;50.744;7.086;2023-04-15T12:26:50;16.40;99.90
15765;DHT22;7983;50.744;7.086;2023-04-15T12:29:17;16.30;99.90
15765;DHT22;7983;50.744;7.086;2023-04-15T12:32:08;16.20;99.90
15765;DHT22;7983;50.744;7.086;2023-04-15T12:34:36;16.10;99.90
15765;DHT22;7983;50.744;7.086;2023-04-15T12:37:04;15.90;99.90
15765;DHT22;7983;50.744;7.086;2023-04-15T12:39:38;15.70;99.90
15765;DHT22;7983;50.744;7.086;2023-04-15T12:42:07;15.50;99.90
15765;DHT22;7983;50.744;7.086;2023-04-15T12:44:35;15.40;99.90
15765;DHT22;7983;50.744;7.086;2023-04-15T12:47:06;15.30;99.90
15765;DHT22;7983;50.744;7.086;2023-04-15T12:49:32;15.20;99.90
15765;DHT22;7983;50.744;7.086;2023-04-15T12:52:01;15.00;99.90
15765;DHT22;7983;50.744;7.086;2023-04-15T12:54:28;14.90;99.90
15765;DHT22;7983;50.744;7.086;2023-04-15T12:56:56;14.80;99.90
15765;DHT22;7983;50.744;7.086;2023-04-15T12:59:22;14.70;99.90
15765;DHT22;7983;50.744;7.086;2023-04-15T13:01:51;14.60;99.90
15765;DHT22;7983;50.744;7.086;2023-04-15T13:04:18;14.60;99.90
15765;DHT22;7983;50.744;7.086;2023-04-15T13:06:44;14.40;99.90
15765;DHT22;7983;50.744;7.086;2023-04-15T13:09:12;14.40;99.90
15765;DHT22;7983;50.744;7.086;2023-04-15T13:11:38;14.30;99.90
15765;DHT22;7983;50.744;7.086;2023-04-15T13:14:05;14.30;99.90
15765;DHT22;7983;50.744;7.086;2023-04-15T13:16:32;14.30;99.90
15765;DHT22;7983;50.744;7.086;2023-04-15T13:19:03;14.20;99.90
15765;DHT22;7983;50.744;7.086;2023-04-15T13:21:32;14.30;99.90
15765;DHT22;7983;50.744;7.086;2023-04-15T13:23:59;14.30;99.90
15765;DHT22;7983;50.744;7.086;2023-04-15T13:26:25;14.30;99.90
15765;DHT22;7983;50.744;7.086;2023-04-15T13:28:50;14.20;99.90
15765;DHT22;7983;50.744;7.086;2023-04-15T13:31:16;14.20;99.90
15765;DHT22;7983;50.744;7.086;2023-04-15T13:33:42;14.20;99.90
15765;DHT22;7983;50.744;7.086;2023-04-15T13:36:07;14.20;99.90
15765;DHT22;7983;50.744;7.086;2023-04-15T13:38:33;14.20;99.90
15765;DHT22;7983;50.744;7.086;2023-04-15T13:41:03;14.10;99.90
15765;DHT22;7983;50.744;7.086;2023-04-15T13:43:29;14.20;99.90
15765;DHT22;7983;50.744;7.086;2023-04-15T13:45:57;14.20;99.90
15765;DHT22;7983;50.744;7.086;2023-04-15T13:48:22;14.20;99.90
15765;DHT22;7983;50.744;7.086;2023-04-15T13:50:48;14.20;99.90
15765;DHT22;7983;50.744;7.086;2023-04-15T13:53:16;14.10;99.90
15765;DHT22;7983;50.744;7.086;2023-04-15T13:55:44;14.10;99.90
15765;DHT22;7983;50.744;7.086;2023-04-15T13:58:10;14.10;99.90
15765;DHT22;7983;50.744;7.086;2023-04-15T14:00:38;14.00;99.90
15765;DHT22;7983;50.744;7.086;2023-04-15T14:03:05;14.00;99.90
15765;DHT22;7983;50.744;7.086;2023-04-15T14:05:35;14.00;99.90
15765;DHT22;7983;50.744;7.086;2023-04-15T14:08:00;13.90;99.90
15765;DHT22;7983;50.744;7.086;2023-04-15T14:10:31;13.90;99.90
15765;DHT22;7983;50.744;7.086;2023-04-15T14:12:56;13.90;99.90
15765;DHT22;7983;50.744;7.086;2023-04-15T14:15:22;13.90;99.90
15765;DHT22;7983;50.744;7.086;2023-04-15T14:17:48;13.80;99.90
15765;DHT22;7983;50.744;7.086;2023-04-15T14:20:17;13.80;99.90
15765;DHT22;7983;50.744;7.086;2023-04-15T14:22:46;13.70;99.90
15765;DHT22;7983;50.744;7.086;2023-04-15T14:25:11;13.70;99.90
15765;DHT22;7983;50.744;7.086;2023-04-15T14:27:39;13.70;99.90
15765;DHT22;7983;50.744;7.086;2023-04-15T14:30:07;13.60;99.90
15765;DHT22;7983;50.744;7.086;2023-04-15T14:32:35;13.60;99.90
15765;DHT22;7983;50.744;7.086;2023-04-15T14:35:01;13.60;99.90
15765;DHT22;7983;50.744;7.086;2023-04-15T14:37:31;13.60;99.90
15765;DHT22;7983;50.744;7.086;2023-04-15T14:40:00;13.60;99.90
15765;DHT22;7983;50.744;7.086;2023-04-15T14:42:25;13.60;99.90
15765;DHT22;7983;50.744;7.086;2023-04-15T14:44:51;13.50;99.90
15765;DHT22;7983;50.744;7.086;2023-04-15T14:47:19;13.50;99.90
15765;DHT22;7983;50.744;7.086;2023-04-15T14:49:44;13.40;99.90
15765;DHT22;7983;50.744;7.086;2023-04-15T14:52:11;13.40;99.90
15765;DHT22;7983;50.744;7.086;2023-04-15T14:54:43;13.30;99.90
15765;DHT22;7983;50.744;7.086;2023-04-15T14:57:09;13.30;99.90
15765;DHT22;7983;50.744;7.086;2023-04-15T14:59:37;13.30;99.90
15765;DHT22;7983;50.744;7.086;2023-04-15T15:02:02;13.20;99.90
15765;DHT22;7983;50.744;7.086;2023-04-15T15:04:28;13.30;99.90
15765;DHT22;7983;50.744;7.086;2023-04-15T15:06:57;13.20;99.90
15765;DHT22;7983;50.744;7.086;2023-04-15T15:09:28;13.20;99.90
15765;DHT22;7983;50.744;7.086;2023-04-15T15:11:54;13.20;99.90
15765;DHT22;7983;50.744;7.086;2023-04-15T15:14:21;13.20;99.90
15765;DHT22;7983;50.744;7.086;2023-04-15T15:16:46;13.10;99.90
15765;DHT22;7983;50.744;7.086;2023-04-15T15:19:17;13.10;99.90
15765;DHT22;7983;50.744;7.086;2023-04-15T15:21:42;13.10;99.90
15765;DHT22;7983;50.744;7.086;2023-04-15T15:24:08;13.00;99.90
15765;DHT22;7983;50.744;7.086;2023-04-15T15:26:33;12.90;99.90
15765;DHT22;7983;50.744;7.086;2023-04-15T15:29:01;12.90;99.90
15765;DHT22;7983;50.744;7.086;2023-04-15T15:31:29;12.80;99.90
15765;DHT22;7983;50.744;7.086;2023-04-15T15:33:55;12.80;99.90
15765;DHT22;7983;50.744;7.086;2023-04-15T15:36:23;12.70;99.90
15765;DHT22;7983;50.744;7.086;2023-04-15T15:38:48;12.70;99.90
15765;DHT22;7983;50.744;7.086;2023-04-15T15:41:14;12.60;99.90
15765;DHT22;7983;50.744;7.086;2023-04-15T15:43:42;12.60;99.90
15765;DHT22;7983;50.744;7.086;2023-04-15T15:46:10;12.60;99.90
15765;DHT22;7983;50.744;7.086;2023-04-15T15:48:36;12.50;99.90
15765;DHT22;7983;50.744;7.086;2023-04-15T15:51:02;12.60;99.90
15765;DHT22;7983;50.744;7.086;2023-04-15T15:53:28;12.50;99.90
15765;DHT22;7983;50.744;7.086;2023-04-15T15:55:56;12.50;99.90
15765;DHT22;7983;50.744;7.086;2023-04-15T15:58:24;12.60;99.90
15765;DHT22;7983;50.744;7.086;2023-04-15T16:00:49;12.50;99.90
15765;DHT22;7983;50.744;7.086;2023-04-15T16:03:18;12.60;99.90
15765;DHT22;7983;50.744;7.086;2023-04-15T16:05:46;12.50;99.90
15765;DHT22;7983;50.744;7.086;2023-04-15T16:08:12;12.50;99.90
15765;DHT22;7983;50.744;7.086;2023-04-15T16:10:37;12.50;99.90
15765;DHT22;7983;50.744;7.086;2023-04-15T16:13:08;12.50;99.90
15765;DHT22;7983;50.744;7.086;2023-04-15T16:15:37;12.50;99.90
15765;DHT22;7983;50.744;7.086;2023-04-15T16:18:03;12.50;99.90
15765;DHT22;7983;50.744;7.086;2023-04-15T16:20:31;12.40;99.90
15765;DHT22;7983;50.744;7.086;2023-04-15T16:22:57;12.40;99.90